• Join FlightAware (Why Join?)
  • Login
  • US Flag 
07:43PM EDT


 

Airport Tracker/Info


-or-


 

Live Flight TrackerFlight Track Log ✈ N275MC ✈ 02-Nov-2013 ✈ KASH - KDXR

Flight Track Log - Related Links

Times and Time Zones

All times are in EDT time to prevent confusion due to time zone crossing. See the N275MC flight status page for this flight to view local times or setup timezone preferences in your user account.

Time Position Orientation Groundspeed Altitude Reporting Facility
EDT Latitude Longitude Course Direction KTS MPH feet Rate Location/Type
01:54PM 42.7797 -71.5717 225° Southwest 86 99 1,400  Level Boston Center
01:55PM 42.7628 -71.5942 224° Southwest 85 98 1,900 540 Climbing Boston Center
01:56PM 42.7444 -71.6183 224° Southwest 85 98 2,500 480 Climbing Boston Center
01:57PM 42.7269 -71.6417 224° Southwest 90 104 2,900 420 Climbing Boston Center
01:58PM 42.7100 -71.6642 224° Southwest 86 99 3,400 480 Climbing Boston Center
01:59PM 42.6466 -71.7095 225° Southwest  Level Estimated
01:59PM 42.6897 -71.6931 226° Southwest 97 112 3,900  Level Boston Center
02:00PM 42.6733 -71.7186 229° Southwest 92 106 4,300 240 Climbing Boston Center
02:01PM 42.6533 -71.7444 224° Southwest 99 114 4,500  Climbing Boston Center
02:02PM 42.6344 -71.7750 230° Southwest 103 119 4,400 -120 Descending Boston Center
02:03PM 42.6131 -71.8006 221° Southwest 97 112 4,300  Descending Boston Center
02:04PM 42.5936 -71.8264 224° Southwest 97 112 4,400  Climbing Boston Center
02:05PM 42.5736 -71.8558 227° Southwest 107 123 4,400 60 Level Boston Center
02:05PM 42.5625 -71.8708 225° Southwest 105 121 4,500  Climbing Boston Center
02:06PM 42.5531 -71.8850 228° Southwest 107 123 4,400 -120 Descending Boston Center
02:06PM 42.5417 -71.9014 227° Southwest 110 127 4,400  Level Boston Center
02:07PM 42.5311 -71.9178 229° Southwest 109 125 4,400  Level Boston Center
02:07PM 42.5208 -71.9319 225° Southwest 107 123 4,400  Level Boston Center
02:08PM 42.5100 -71.9486 229° Southwest 111 128 4,400  Level Boston Center
02:09PM 42.4969 -71.9669 226° Southwest 107 123 4,400  Level Boston Center
02:09PM 42.4897 -71.9772 226° Southwest 108 124 4,400 60 Level Boston Center
02:10PM 42.4764 -71.9947 224° Southwest 106 122 4,500  Climbing Boston Center
02:10PM 42.4681 -72.0117 236° Southwest 111 128 4,400 -120 Descending Boston Center
02:11PM 42.4569 -72.0286 228° Southwest 116 133 4,400  Level Boston Center
02:11PM 42.4458 -72.0389 214° Southwest 107 123 4,400  Level Boston Center
02:11PM 42.4356 -72.0503 219° Southwest 102 117 4,400 60 Level Boston Center
02:12PM 42.4228 -72.0664 223° Southwest 111 128 4,500  Climbing Boston Center
02:12PM 42.4133 -72.0772 220° Southwest 112 129 4,400 -120 Descending Boston Center
02:13PM 42.4022 -72.0961 231° Southwest 109 125 4,400  Level Boston Center
02:13PM 42.3922 -72.1078 221° Southwest 106 122 4,400  Level Boston Center
02:14PM 42.3803 -72.1283 232° Southwest 110 127 4,400  Level Boston Center
02:15PM 42.3656 -72.1447 219° Southwest 112 129 4,400  Level Boston Center
02:15PM 42.3583 -72.1569 231° Southwest 110 127 4,400  Level Boston Center
02:16PM 42.3453 -72.1725 221° Southwest 105 121 4,400 60 Level Boston Center
02:16PM 42.3367 -72.1842 225° Southwest 114 131 4,500  Climbing Boston Center
02:17PM 42.3222 -72.2022 223° Southwest 107 123 4,400 -120 Descending Boston Center
02:17PM 42.3122 -72.2119 216° Southwest 103 119 4,400  Level Boston Center
02:18PM 42.3028 -72.2242 224° Southwest 105 121 4,400  Level Boston Center
02:18PM 42.2886 -72.2389 218° Southwest 110 127 4,400  Level Boston Center
02:19PM 42.2803 -72.2511 227° Southwest 110 127 4,400  Level Boston Center
02:19PM 42.2672 -72.2661 220° Southwest 108 124 4,400  Level Boston Center
02:20PM 42.2547 -72.2828 225° Southwest 107 123 4,400  Level Boston Center
02:20PM 42.2464 -72.2936 224° Southwest 107 123 4,400  Level Boston Center
02:21PM 42.2369 -72.3083 229° Southwest 104 120 4,400  Level Boston Center
02:21PM 42.2233 -72.3225 218° Southwest 105 121 4,400  Level Boston Center
02:22PM 42.2144 -72.3350 226° Southwest 108 124 4,400  Level Boston Center
02:22PM 42.2017 -72.3522 225° Southwest 111 128 4,400  Level Boston Center
02:23PM 42.1914 -72.3647 222° Southwest 107 123 4,400 60 Level Boston Center
02:23PM 42.1792 -72.3772 217° Southwest 107 123 4,500  Climbing Boston Center
02:24PM 42.1694 -72.3886 221° Southwest 107 123 4,400 -120 Descending Boston Center
02:24PM 42.1542 -72.4064 221° Southwest 110 127 4,400 -120 Level Boston Center
02:25PM 42.1469 -72.4156 223° Southwest 109 125 4,300  Descending Boston Center
02:25PM 42.1317 -72.4311 217° Southwest 107 123 4,400 60 Climbing Boston Center
02:26PM 42.1225 -72.4414 220° Southwest 107 123 4,400  Level Boston Center
02:26PM 42.1078 -72.4556 216° Southwest 110 127 4,400  Level Boston Center
02:27PM 42.0983 -72.4647 216° Southwest 111 128 4,400 60 Level Boston Center
02:27PM 42.0833 -72.4819 220° Southwest 114 131 4,500  Climbing Boston Center
02:28PM 42.0739 -72.4908 215° Southwest 112 129 4,400 -120 Descending Boston Center
02:28PM 42.0567 -72.5106 220° Southwest 113 130 4,400  Level Boston Center
02:29PM 42.0486 -72.5194 219° Southwest 114 131 4,400  Level Boston Center
02:29PM 42.0333 -72.5372 221° Southwest 109 125 4,400  Level Boston Center
02:30PM 42.0256 -72.5489 228° Southwest 110 127 4,400  Level Boston Center
02:30PM 42.0117 -72.5656 222° Southwest 110 127 4,400  Level Boston Center
02:31PM 42.0025 -72.5783 226° Southwest 108 124 4,400  Level Boston Center
02:31PM 41.9925 -72.5953 232° Southwest 108 124 4,400  Level Boston Center
02:32PM 41.9842 -72.6064 225° Southwest 108 124 4,400  Level Boston Center
02:32PM 41.9661 -72.6244 217° Southwest 115 132 4,400 -120 Level Boston Center
02:33PM 41.9594 -72.6322 221° Southwest 108 124 4,300  Descending Boston Center
02:34PM 41.9456 -72.6497 223° Southwest 107 123 4,400 60 Climbing Boston Center
02:34PM 41.9375 -72.6561 211° Southwest 97 112 4,400 60 Level Boston Center
02:35PM 41.9272 -72.6778 237° Southwest 100 115 4,500 60 Climbing Boston Center
02:35PM 41.9189 -72.6842 210° Southwest 102 117 4,500 -120 Level Boston Center
02:36PM 41.9075 -72.7044 233° Southwest 100 115 4,400 -120 Descending Boston Center
02:36PM 41.9017 -72.7156 235° Southwest 102 117 4,400  Level Boston Center
02:37PM 41.8900 -72.7372 234° Southwest 107 123 4,400 60 Level Boston Center
02:37PM 41.8822 -72.7489 228° Southwest 112 129 4,500  Climbing Boston Center
02:38PM 41.8703 -72.7669 228° Southwest 107 123 4,400 -120 Descending Boston Center
02:38PM 41.8642 -72.7742 221° Southwest 102 117 4,400  Level Boston Center
02:39PM 41.8500 -72.7989 232° Southwest 106 122 4,400  Level Boston Center
02:39PM 41.8456 -72.8022 209° Southwest 105 121 4,400  Level Boston Center
02:40PM 41.8308 -72.8256 230° Southwest 101 116 4,400  Level Boston Center
02:40PM 41.8244 -72.8319 217° Southwest 103 119 4,400  Level Boston Center
02:41PM 41.8089 -72.8544 227° Southwest 107 123 4,400  Level Boston Center
02:41PM 41.8033 -72.8619 225° Southwest 108 124 4,400 60 Level Boston Center
02:42PM 41.7908 -72.8867 236° Southwest 108 124 4,500  Climbing Boston Center
02:42PM 41.7831 -72.8978 227° Southwest 113 130 4,400 -120 Descending Boston Center
02:43PM 41.7697 -72.9208 232° Southwest 111 128 4,400  Level Boston Center
02:43PM 41.7669 -72.9239 219° Southwest 111 128 4,400  Level Boston Center
02:44PM 41.7506 -72.9481 228° Southwest 101 116 4,400  Level Boston Center
02:44PM 41.7458 -72.9536 221° Southwest 101 116 4,400  Level Boston Center
02:45PM 41.7325 -72.9781 234° Southwest 102 117 4,400 60 Level Boston Center
02:45PM 41.7292 -72.9822 223° Southwest 101 116 4,500  Climbing Boston Center
02:46PM 41.7114 -73.0097 229° Southwest 112 129 4,400 -120 Descending Boston Center
02:46PM 41.7081 -73.0119 206° Southwest 112 129 4,400  Level Boston Center
02:47PM 41.6906 -73.0369 227° Southwest 95 109 4,400  Level Boston Center
02:47PM 41.6872 -73.0392 206° Southwest 102 117 4,400  Level Boston Center
02:48PM 41.6725 -73.0644 232° Southwest 98 113 4,400  Level Boston Center
02:48PM 41.6692 -73.0642 176° South 94 108 4,400 -120 Level Boston Center
02:49PM 41.6544 -73.0950 237° Southwest 106 122 4,300 -120 Descending Boston Center
02:49PM 41.6519 -73.0953 185° South 100 115 4,300  Level Boston Center
02:50PM 41.6367 -73.1256 236° Southwest 99 114 4,300  Level Boston Center
02:50PM 41.6353 -73.1239 138° Southeast 102 117 4,300 60 Level Boston Center
02:51PM 41.6164 -73.1528 229° Southwest 104 120 4,400  Climbing Boston Center
02:52PM 41.5939 -73.1792 221° Southwest 106 122 4,400  Level Boston Center
02:53PM 41.5653 -73.1939 201° Southwest 108 124 4,400  Level Boston Center
02:54PM 41.5364 -73.2172 211° Southwest 112 129 4,400 -120 Level Boston Center
02:55PM 41.5133 -73.2406 217° Southwest 104 120 4,200 -300 Descending Boston Center
02:56PM 41.4864 -73.2589 207° Southwest 109 125 3,800 -420 Descending Boston Center
02:57PM 41.4617 -73.2800 213° Southwest 108 124 3,400 -300 Descending Boston Center
02:58PM 41.4364 -73.2981 208° Southwest 107 123 3,200 -240 Descending Boston Center
02:59PM 41.4242 -73.3358 247° West 101 116 3,000 -480 Descending Boston Center
03:00PM 41.4069 -73.3667 233° Southwest 102 117 2,300 -480 Descending Boston Center
03:01PM 41.3947 -73.3947 240° Southwest 96 110 2,100 -420 Descending Boston Center
03:02PM 41.3858 -73.4292 251° West 97 112 1,500 -600 Descending Boston Center
03:03PM 41.3783 -73.4578 251° West 92 106 900 -600 Descending Boston Center
03:05PM 41.3667 -73.4667 224° Southwest  Level FlightAware Approximate
03:12PM 41.3715 -73.4822 224° Southwest  Level Estimated
03:13PM 41.3715 -73.4822 224° Southwest  Level Estimated